createdAt,value
2019-02-19T00:00:30.371Z,0.00
2019-02-19T00:01:30.325Z,0.00
2019-02-19T00:02:30.321Z,0.00
2019-02-19T00:03:30.313Z,0.00
2019-02-19T00:04:30.297Z,0.00
2019-02-19T00:05:30.302Z,0.00
2019-02-19T00:06:30.276Z,0.00
2019-02-19T00:07:30.263Z,0.00
2019-02-19T00:08:30.248Z,0.00
2019-02-19T00:09:30.242Z,0.00
2019-02-19T00:10:30.243Z,0.00
2019-02-19T00:11:30.226Z,0.00
2019-02-19T00:12:30.204Z,0.00
2019-02-19T00:13:30.191Z,0.00
2019-02-19T00:14:30.183Z,0.00
2019-02-19T00:15:30.204Z,0.00
2019-02-19T00:16:30.166Z,0.00
2019-02-19T00:17:30.160Z,0.00
2019-02-19T00:18:30.140Z,0.00
2019-02-19T00:19:30.140Z,0.00
2019-02-19T00:20:30.150Z,0.00
2019-02-19T00:21:30.104Z,0.00
2019-02-19T00:22:30.099Z,0.00
2019-02-19T00:23:30.082Z,0.00
2019-02-19T00:24:30.080Z,0.00
2019-02-19T00:25:30.080Z,0.00
2019-02-19T00:26:30.082Z,0.00
2019-02-19T00:27:30.038Z,0.00
2019-02-19T00:28:30.034Z,0.00
2019-02-19T00:29:30.014Z,0.00
2019-02-19T00:30:30.056Z,0.00
2019-02-19T00:31:29.992Z,0.00
2019-02-19T00:32:29.982Z,0.00
2019-02-19T00:33:30.352Z,0.00
2019-02-19T00:34:29.964Z,0.00
2019-02-19T00:35:29.987Z,0.00
2019-02-19T00:36:29.941Z,0.00
2019-02-19T00:37:29.925Z,0.00
2019-02-19T00:38:29.942Z,0.00
2019-02-19T00:39:29.914Z,0.00
2019-02-19T00:40:29.949Z,0.00
2019-02-19T00:41:29.888Z,0.00
2019-02-19T00:42:29.867Z,0.00
2019-02-19T00:43:29.862Z,0.00
2019-02-19T00:44:29.844Z,0.00
2019-02-19T00:45:29.903Z,0.00
2019-02-19T00:46:29.820Z,0.00
2019-02-19T00:47:29.815Z,0.00
2019-02-19T00:48:29.801Z,0.00
2019-02-19T00:49:29.802Z,0.00
2019-02-19T00:50:29.807Z,0.00
2019-02-19T00:51:29.792Z,0.00
2019-02-19T00:52:29.755Z,0.00
2019-02-19T00:53:29.753Z,0.00
2019-02-19T00:54:29.739Z,0.00
2019-02-19T00:55:29.746Z,0.00
2019-02-19T00:56:29.718Z,0.00
2019-02-19T00:57:29.714Z,0.00
2019-02-19T00:58:29.699Z,0.00
2019-02-19T00:59:29.680Z,0.00
2019-02-19T01:00:29.695Z,0.00
2019-02-19T01:01:29.655Z,0.00
2019-02-19T01:02:29.656Z,0.00
2019-02-19T01:03:29.632Z,0.00
2019-02-19T01:04:29.629Z,0.00
2019-02-19T01:05:29.634Z,0.00
2019-02-19T01:06:29.602Z,0.00
2019-02-19T01:07:29.589Z,0.00
2019-02-19T01:08:29.578Z,0.00
2019-02-19T01:09:29.561Z,0.00
2019-02-19T01:10:29.571Z,0.00
2019-02-19T01:11:29.540Z,0.00
2019-02-19T01:12:29.539Z,0.00
2019-02-19T01:13:29.550Z,0.00
2019-02-19T01:14:29.518Z,0.00
2019-02-19T01:15:29.520Z,0.00
2019-02-19T01:16:29.487Z,0.00
2019-02-19T01:17:29.473Z,0.00
2019-02-19T01:18:29.463Z,0.00
2019-02-19T01:19:29.489Z,0.00
2019-02-19T01:20:29.452Z,0.00
2019-02-19T01:21:29.570Z,0.00
2019-02-19T01:22:29.419Z,0.00
2019-02-19T01:23:29.411Z,0.00
2019-02-19T01:24:29.398Z,0.00
2019-02-19T01:25:29.403Z,0.00
2019-02-19T01:26:29.393Z,0.00
2019-02-19T01:27:29.370Z,0.00
2019-02-19T01:28:29.362Z,0.00
2019-02-19T01:29:29.343Z,0.00
2019-02-19T01:30:29.330Z,0.00
2019-02-19T01:31:29.343Z,0.00
2019-02-19T01:32:29.333Z,0.00
2019-02-19T01:33:29.292Z,0.00
2019-02-19T01:34:29.284Z,0.00
2019-02-19T01:35:29.282Z,0.00
2019-02-19T01:36:29.292Z,0.00
2019-02-19T01:37:29.257Z,0.00
2019-02-19T01:38:29.238Z,0.00
2019-02-19T01:39:29.222Z,0.00
2019-02-19T01:40:29.215Z,0.00
2019-02-19T01:41:29.226Z,0.00
2019-02-19T01:42:29.201Z,0.00
2019-02-19T01:43:29.190Z,0.00
2019-02-19T01:44:29.191Z,0.00
2019-02-19T01:45:34.123Z,0.00
2019-02-19T01:46:30.178Z,0.00
2019-02-19T01:47:29.141Z,0.00
2019-02-19T01:48:29.129Z,0.00
2019-02-19T01:49:29.121Z,0.00
2019-02-19T01:50:29.104Z,0.00
2019-02-19T01:51:29.129Z,0.00
2019-02-19T01:52:29.084Z,0.00
2019-02-19T01:53:29.072Z,0.00
2019-02-19T01:54:29.077Z,0.00
2019-02-19T01:55:29.061Z,0.00
2019-02-19T01:56:29.064Z,0.00
2019-02-19T01:57:29.026Z,0.00
2019-02-19T01:58:29.021Z,0.00
2019-02-19T01:59:29.006Z,0.00
2019-02-19T02:00:29.001Z,0.00
2019-02-19T02:01:29.006Z,0.00
2019-02-19T02:02:28.972Z,0.00
2019-02-19T02:03:28.970Z,0.00
2019-02-19T02:04:28.948Z,0.00
2019-02-19T02:05:28.950Z,0.00
2019-02-19T02:06:28.948Z,0.00
2019-02-19T02:07:28.913Z,0.00
2019-02-19T02:08:28.902Z,0.00
2019-02-19T02:09:28.896Z,0.00
2019-02-19T02:10:28.878Z,0.00
2019-02-19T02:11:28.907Z,0.00
2019-02-19T02:12:28.856Z,0.00
2019-02-19T02:13:28.847Z,0.00
2019-02-19T02:14:28.837Z,0.00
2019-02-19T02:15:28.828Z,0.00
2019-02-19T02:16:28.838Z,0.00
2019-02-19T02:17:28.806Z,0.00
2019-02-19T02:18:28.795Z,0.00
2019-02-19T02:19:28.781Z,0.00
2019-02-19T02:20:28.768Z,0.00
2019-02-19T02:21:28.777Z,0.00
2019-02-19T02:22:28.762Z,0.00
2019-02-19T02:23:28.742Z,0.00
2019-02-19T02:24:28.725Z,0.00
2019-02-19T02:25:28.822Z,0.00
2019-02-19T02:26:28.733Z,0.00
2019-02-19T02:27:28.688Z,0.00
2019-02-19T02:28:28.724Z,0.00
2019-02-19T02:29:28.664Z,0.00
2019-02-19T02:30:28.658Z,0.00
2019-02-19T02:31:28.649Z,0.00
2019-02-19T02:32:28.659Z,0.00
2019-02-19T02:33:28.626Z,0.00
2019-02-19T02:34:28.612Z,0.00
2019-02-19T02:35:28.609Z,0.00
2019-02-19T02:36:28.666Z,0.00
2019-02-19T02:37:28.594Z,0.00
2019-02-19T02:38:28.568Z,0.00
2019-02-19T02:39:28.554Z,0.00
2019-02-19T02:40:28.551Z,0.00
2019-02-19T02:41:28.543Z,0.00
2019-02-19T02:42:28.546Z,0.00
2019-02-19T02:43:28.516Z,0.00
2019-02-19T02:44:28.508Z,0.00
2019-02-19T02:45:28.490Z,0.00
2019-02-19T02:46:28.496Z,0.00
2019-02-19T02:47:28.495Z,0.00
2019-02-19T02:48:28.451Z,0.00
2019-02-19T02:49:28.444Z,0.00
2019-02-19T02:50:28.438Z,0.00
2019-02-19T02:51:28.437Z,0.00
2019-02-19T02:52:28.434Z,0.00
2019-02-19T02:53:28.408Z,0.00
2019-02-19T02:54:28.388Z,0.00
2019-02-19T02:55:28.387Z,0.00
2019-02-19T02:56:28.372Z,0.00
2019-02-19T02:57:28.377Z,0.00
2019-02-19T02:58:28.347Z,0.00
2019-02-19T02:59:28.334Z,0.00
2019-02-19T03:00:28.328Z,0.00
2019-02-19T03:01:28.316Z,0.00
2019-02-19T03:02:28.339Z,0.00
2019-02-19T03:03:28.309Z,0.00
2019-02-19T03:04:28.275Z,0.00
2019-02-19T03:05:28.266Z,0.00
2019-02-19T03:06:28.254Z,0.00
2019-02-19T03:07:28.262Z,0.00
2019-02-19T03:08:28.233Z,0.00
2019-02-19T03:09:28.232Z,0.00
2019-02-19T03:10:28.210Z,0.00
2019-02-19T03:11:28.197Z,0.00
2019-02-19T03:12:28.210Z,0.00
2019-02-19T03:13:28.183Z,0.00
2019-02-19T03:14:28.173Z,0.00
2019-02-19T03:15:28.157Z,0.00
2019-02-19T03:16:28.146Z,0.00
2019-02-19T03:17:28.152Z,0.00
2019-02-19T03:18:28.124Z,0.00
2019-02-19T03:19:28.108Z,0.00
2019-02-19T03:20:28.099Z,0.00
2019-02-19T03:21:28.086Z,0.00
2019-02-19T03:22:28.092Z,0.00
2019-02-19T03:23:28.065Z,0.00
2019-02-19T03:24:28.059Z,0.00
2019-02-19T03:25:28.041Z,0.00
2019-02-19T03:26:28.035Z,0.00
2019-02-19T03:27:28.036Z,0.00
2019-02-19T03:28:28.010Z,0.00
2019-02-19T03:29:27.995Z,0.00
2019-02-19T03:30:28.010Z,0.00
2019-02-19T03:31:27.989Z,0.00
2019-02-19T03:32:28.004Z,0.00
2019-02-19T03:33:27.953Z,0.00
2019-02-19T03:34:27.945Z,0.00
2019-02-19T03:35:27.931Z,0.00
2019-02-19T03:36:27.919Z,0.00
2019-02-19T03:37:27.934Z,0.00
2019-02-19T03:38:27.897Z,0.00
2019-02-19T03:39:27.927Z,0.00
2019-02-19T03:40:27.879Z,0.00
2019-02-19T03:41:27.886Z,0.00
2019-02-19T03:42:27.881Z,0.00
2019-02-19T03:43:27.854Z,0.00
2019-02-19T03:44:27.830Z,0.00
2019-02-19T03:45:27.844Z,0.00
2019-02-19T03:46:27.810Z,0.00
2019-02-19T03:47:27.821Z,0.00
2019-02-19T03:48:27.786Z,0.00
2019-02-19T03:49:27.781Z,0.00
2019-02-19T03:50:27.766Z,0.00
2019-02-19T03:51:27.750Z,0.00
2019-02-19T03:52:27.760Z,0.00
2019-02-19T03:53:27.724Z,0.00
2019-02-19T03:54:27.716Z,0.00
2019-02-19T03:55:27.744Z,0.00
2019-02-19T03:56:27.735Z,0.00
2019-02-19T03:57:27.702Z,0.00
2019-02-19T03:58:27.685Z,0.00
2019-02-19T03:59:27.663Z,0.00
2019-02-19T04:00:27.661Z,0.00
2019-02-19T04:01:27.660Z,0.00
2019-02-19T04:02:27.644Z,0.00
2019-02-19T04:03:27.614Z,0.00
2019-02-19T04:04:27.614Z,0.00
2019-02-19T04:05:27.594Z,0.00
2019-02-19T04:06:27.603Z,0.00
2019-02-19T04:07:27.612Z,0.00
2019-02-19T04:08:27.559Z,0.00
2019-02-19T04:09:27.549Z,0.00
2019-02-19T04:10:27.559Z,0.00
2019-02-19T04:11:27.536Z,0.00
2019-02-19T04:12:27.530Z,0.00
2019-02-19T04:13:27.532Z,0.00
2019-02-19T04:14:27.497Z,0.00
2019-02-19T04:15:27.485Z,0.00
2019-02-19T04:16:27.469Z,0.00
2019-02-19T04:17:27.462Z,0.00
2019-02-19T04:18:27.468Z,0.00
2019-02-19T04:19:27.443Z,0.00
2019-02-19T04:20:27.426Z,0.00
2019-02-19T04:21:27.428Z,0.00
2019-02-19T04:22:27.402Z,0.00
2019-02-19T04:23:27.415Z,0.00
2019-02-19T04:24:27.384Z,0.00
2019-02-19T04:25:27.430Z,0.00
2019-02-19T04:26:27.359Z,0.00
2019-02-19T04:27:27.353Z,0.00
2019-02-19T04:28:27.369Z,0.00
2019-02-19T04:29:27.331Z,0.00
2019-02-19T04:30:27.317Z,0.00
2019-02-19T04:31:27.303Z,0.00
2019-02-19T04:32:27.293Z,0.00
2019-02-19T04:33:27.296Z,0.00
2019-02-19T04:34:27.274Z,0.00
2019-02-19T04:35:27.260Z,0.00
2019-02-19T04:36:27.244Z,0.00
2019-02-19T04:37:27.235Z,0.00
2019-02-19T04:38:27.245Z,0.00
2019-02-19T04:39:27.217Z,0.00
2019-02-19T04:40:27.219Z,0.00
2019-02-19T04:41:27.201Z,0.00
2019-02-19T04:42:27.184Z,0.00
2019-02-19T04:43:27.186Z,0.00
2019-02-19T04:44:27.155Z,0.00
2019-02-19T04:45:27.153Z,0.00
2019-02-19T04:46:31.586Z,0.00
2019-02-19T04:47:27.134Z,0.00
2019-02-19T04:48:27.126Z,0.00
2019-02-19T04:49:27.107Z,0.00
2019-02-19T04:50:27.090Z,0.00
2019-02-19T04:51:27.087Z,0.00
2019-02-19T04:52:27.094Z,0.00
2019-02-19T04:53:27.094Z,0.00
2019-02-19T04:54:27.048Z,0.00
2019-02-19T04:55:27.043Z,0.00
2019-02-19T04:56:27.028Z,0.00
2019-02-19T04:57:27.023Z,0.00
2019-02-19T04:58:27.021Z,0.00
2019-02-19T04:59:26.989Z,0.00
2019-02-19T05:00:26.992Z,0.00
2019-02-19T05:01:26.972Z,0.00
2019-02-19T05:02:26.959Z,0.00
2019-02-19T05:03:26.967Z,0.00
2019-02-19T05:04:26.945Z,0.00
2019-02-19T05:05:26.945Z,0.00
2019-02-19T05:06:26.916Z,0.00
2019-02-19T05:07:26.907Z,0.00
2019-02-19T05:08:26.917Z,0.00
2019-02-19T05:09:26.884Z,0.00
2019-02-19T05:10:26.871Z,0.00
2019-02-19T05:11:26.860Z,0.00
2019-02-19T05:12:26.851Z,0.00
2019-02-19T05:13:26.851Z,0.00
2019-02-19T05:14:26.827Z,0.00
2019-02-19T05:15:26.812Z,0.00
2019-02-19T05:16:26.800Z,0.00
2019-02-19T05:17:26.790Z,0.00
2019-02-19T05:18:26.803Z,0.00
2019-02-19T05:19:26.779Z,0.00
2019-02-19T05:20:26.766Z,0.00
2019-02-19T05:21:26.752Z,0.00
2019-02-19T05:22:26.733Z,0.00
2019-02-19T05:23:26.942Z,0.00
2019-02-19T05:24:26.709Z,0.00
2019-02-19T05:25:26.710Z,0.00
2019-02-19T05:26:26.690Z,0.00
2019-02-19T05:27:26.689Z,0.00
2019-02-19T05:28:26.695Z,0.00
2019-02-19T05:29:26.662Z,0.00
2019-02-19T05:30:26.652Z,0.00
2019-02-19T05:31:26.643Z,0.00
2019-02-19T05:32:26.645Z,0.00
2019-02-19T05:33:26.632Z,0.00
2019-02-19T05:34:26.602Z,0.00
2019-02-19T05:35:26.605Z,0.00
2019-02-19T05:36:26.590Z,0.00
2019-02-19T05:37:26.578Z,0.00
2019-02-19T05:38:26.580Z,0.00
2019-02-19T05:39:26.546Z,0.00
2019-02-19T05:40:26.529Z,0.00
2019-02-19T05:41:26.526Z,0.00
2019-02-19T05:42:26.519Z,0.00
2019-02-19T05:43:26.536Z,0.00
2019-02-19T05:44:26.491Z,0.00
2019-02-19T05:45:26.484Z,0.00
2019-02-19T05:46:26.471Z,0.00
2019-02-19T05:47:26.452Z,0.00
2019-02-19T05:48:26.462Z,0.00
2019-02-19T05:49:26.447Z,0.00
2019-02-19T05:50:26.427Z,0.00
2019-02-19T05:51:26.413Z,0.00
2019-02-19T05:52:26.408Z,0.00
2019-02-19T05:53:27.557Z,0.00
2019-02-19T05:54:26.388Z,0.00
2019-02-19T05:55:26.365Z,0.00
2019-02-19T05:56:26.349Z,0.00
2019-02-19T05:57:26.349Z,0.00
2019-02-19T05:58:26.328Z,0.00
2019-02-19T05:59:26.342Z,0.00
2019-02-19T06:00:26.311Z,0.00
2019-02-19T06:01:26.306Z,0.00
2019-02-19T06:02:26.299Z,0.00
2019-02-19T06:03:26.275Z,0.00
2019-02-19T06:04:26.281Z,5.62
2019-02-19T06:05:26.259Z,5.62
2019-02-19T06:06:26.244Z,5.62
2019-02-19T06:07:26.236Z,5.62
2019-02-19T06:08:26.216Z,5.62
2019-02-19T06:09:26.226Z,5.62
2019-02-19T06:10:26.197Z,5.62
2019-02-19T06:11:26.191Z,5.62
2019-02-19T06:12:26.181Z,5.62
2019-02-19T06:13:26.176Z,5.62
2019-02-19T06:14:26.174Z,5.62
2019-02-19T06:15:26.143Z,11.25
2019-02-19T06:16:26.127Z,11.25
2019-02-19T06:17:26.114Z,11.25
2019-02-19T06:18:26.116Z,11.25
2019-02-19T06:19:26.108Z,11.25
2019-02-19T06:20:26.089Z,11.25
2019-02-19T06:21:26.077Z,11.25
2019-02-19T06:22:26.074Z,16.88
2019-02-19T06:23:26.045Z,16.88
2019-02-19T06:24:26.058Z,16.88
2019-02-19T06:25:26.035Z,22.50
2019-02-19T06:26:26.016Z,22.50
2019-02-19T06:27:26.015Z,22.50
2019-02-19T06:28:26.009Z,28.12
2019-02-19T06:29:26.010Z,28.12
2019-02-19T06:30:25.975Z,28.12
2019-02-19T06:31:25.957Z,33.75
2019-02-19T06:32:25.951Z,33.75
2019-02-19T06:33:25.948Z,33.75
2019-02-19T06:34:25.951Z,39.38
2019-02-19T06:35:25.921Z,39.38
2019-02-19T06:36:25.910Z,39.38
2019-02-19T06:37:25.901Z,45.00
2019-02-19T06:38:25.887Z,45.00
2019-02-19T06:39:25.896Z,45.00
2019-02-19T06:40:25.861Z,45.00
2019-02-19T06:41:25.847Z,45.00
2019-02-19T06:42:25.836Z,45.00
2019-02-19T06:43:25.827Z,45.00
2019-02-19T06:44:25.839Z,50.62
2019-02-19T06:45:25.806Z,50.62
2019-02-19T06:46:25.808Z,50.62
2019-02-19T06:47:25.783Z,56.25
2019-02-19T06:48:25.767Z,56.25
2019-02-19T06:49:25.776Z,61.88
2019-02-19T06:50:25.751Z,61.88
2019-02-19T06:51:25.740Z,61.88
2019-02-19T06:52:25.727Z,61.88
2019-02-19T06:53:25.721Z,67.50
2019-02-19T06:54:25.726Z,67.50
2019-02-19T06:55:25.686Z,73.12
2019-02-19T06:56:25.681Z,73.12
2019-02-19T06:57:25.669Z,78.75
2019-02-19T06:58:25.668Z,78.75
2019-02-19T06:59:25.662Z,84.38
2019-02-19T07:00:25.635Z,84.38
2019-02-19T07:01:25.635Z,84.38
2019-02-19T07:02:25.609Z,90.00
2019-02-19T07:03:25.603Z,90.00
2019-02-19T07:04:25.638Z,90.00
2019-02-19T07:05:25.577Z,95.62
2019-02-19T07:06:25.570Z,95.62
2019-02-19T07:07:25.558Z,101.25
2019-02-19T07:08:25.594Z,101.25
2019-02-19T07:09:25.570Z,106.88
2019-02-19T07:10:25.530Z,106.88
2019-02-19T07:11:25.513Z,106.88
2019-02-19T07:12:25.503Z,106.88
2019-02-19T07:13:25.499Z,106.88
2019-02-19T07:14:25.498Z,106.88
2019-02-19T07:15:25.471Z,106.88
2019-02-19T07:16:25.466Z,112.50
2019-02-19T07:17:25.450Z,118.12
2019-02-19T07:18:25.436Z,123.75
2019-02-19T07:19:25.450Z,129.38
2019-02-19T07:20:25.412Z,135.00
2019-02-19T07:21:25.401Z,135.00
2019-02-19T07:22:25.392Z,140.62
2019-02-19T07:23:25.380Z,135.00
2019-02-19T07:24:25.390Z,140.62
2019-02-19T07:25:25.361Z,140.62
2019-02-19T07:26:25.348Z,140.62
2019-02-19T07:27:25.348Z,140.62
2019-02-19T07:28:25.345Z,146.25
2019-02-19T07:29:25.336Z,151.88
2019-02-19T07:30:25.302Z,157.50
2019-02-19T07:31:25.299Z,151.88
2019-02-19T07:32:25.276Z,151.88
2019-02-19T07:33:25.371Z,157.50
2019-02-19T07:34:25.253Z,157.50
2019-02-19T07:35:25.236Z,157.50
2019-02-19T07:36:25.231Z,157.50
2019-02-19T07:37:25.230Z,163.12
2019-02-19T07:38:25.226Z,163.12
2019-02-19T07:39:25.203Z,163.12
2019-02-19T07:40:25.213Z,180.00
2019-02-19T07:41:25.177Z,180.00
2019-02-19T07:42:25.166Z,180.00
2019-02-19T07:43:25.178Z,180.00
2019-02-19T07:44:25.148Z,180.00
2019-02-19T07:45:25.164Z,185.62
2019-02-19T07:46:25.126Z,185.62
2019-02-19T07:47:25.112Z,185.62
2019-02-19T07:48:25.100Z,180.00
2019-02-19T07:49:25.090Z,185.62
2019-02-19T07:50:25.095Z,180.00
2019-02-19T07:51:25.062Z,180.00
2019-02-19T07:52:25.048Z,174.38
2019-02-19T07:53:25.040Z,174.38
2019-02-19T07:54:25.037Z,174.38
2019-02-19T07:55:25.036Z,180.00
2019-02-19T07:56:25.019Z,174.38
2019-02-19T07:57:24.996Z,174.38
2019-02-19T07:58:24.990Z,180.00
2019-02-19T07:59:25.154Z,180.00
2019-02-19T08:00:25.027Z,180.00
2019-02-19T08:01:24.956Z,185.62
2019-02-19T08:02:24.946Z,191.25
2019-02-19T08:03:24.930Z,191.25
2019-02-19T08:04:24.916Z,196.88
2019-02-19T08:05:24.947Z,196.88
2019-02-19T08:06:24.893Z,196.88
2019-02-19T08:07:24.899Z,202.50
2019-02-19T08:08:24.900Z,208.12
2019-02-19T08:09:24.867Z,208.12
2019-02-19T08:10:24.906Z,213.75
2019-02-19T08:11:24.844Z,213.75
2019-02-19T08:12:26.226Z,213.75
2019-02-19T08:13:24.818Z,219.38
2019-02-19T08:14:24.825Z,225.00
2019-02-19T08:15:24.812Z,225.00
2019-02-19T08:16:24.780Z,230.62
2019-02-19T08:17:32.904Z,236.25
2019-02-19T08:18:25.766Z,236.25
2019-02-19T08:19:24.758Z,241.88
2019-02-19T08:20:24.764Z,247.50
2019-02-19T08:21:24.739Z,258.75
2019-02-19T08:22:24.735Z,264.38
2019-02-19T08:23:24.702Z,270.00
2019-02-19T08:24:24.701Z,270.00
2019-02-19T08:25:24.711Z,275.62
2019-02-19T08:26:24.665Z,270.00
2019-02-19T08:27:24.653Z,270.00
2019-02-19T08:28:24.650Z,270.00
2019-02-19T08:29:24.632Z,275.62
2019-02-19T08:30:24.830Z,275.62
2019-02-19T08:31:24.615Z,281.25
2019-02-19T08:32:24.606Z,281.25
2019-02-19T08:33:24.597Z,286.88
2019-02-19T08:34:24.582Z,292.50
2019-02-19T08:35:24.593Z,303.75
2019-02-19T08:36:24.580Z,309.38
2019-02-19T08:37:24.542Z,320.62
2019-02-19T08:38:24.531Z,326.25
2019-02-19T08:39:24.521Z,326.25
2019-02-19T08:40:24.511Z,331.88
2019-02-19T08:41:24.502Z,331.88
2019-02-19T08:42:24.522Z,331.88
2019-02-19T08:43:24.489Z,343.12
2019-02-19T08:44:24.467Z,348.75
2019-02-19T08:45:24.450Z,348.75
2019-02-19T08:46:24.444Z,354.38
2019-02-19T08:47:24.454Z,354.38
2019-02-19T08:48:24.436Z,354.38
2019-02-19T08:49:24.408Z,354.38
2019-02-19T08:50:24.397Z,360.00
2019-02-19T08:51:24.416Z,360.00
2019-02-19T08:52:24.373Z,337.50
2019-02-19T08:53:24.368Z,315.00
2019-02-19T08:54:24.348Z,298.12
2019-02-19T08:55:24.345Z,303.75
2019-02-19T08:56:24.346Z,303.75
2019-02-19T08:57:24.324Z,303.75
2019-02-19T08:58:24.310Z,275.62
2019-02-19T08:59:24.290Z,230.62
2019-02-19T09:00:24.283Z,202.50
2019-02-19T09:01:24.290Z,191.25
2019-02-19T09:02:24.261Z,208.12
2019-02-19T09:03:24.250Z,253.12
2019-02-19T09:04:24.240Z,270.00
2019-02-19T09:05:24.231Z,298.12
2019-02-19T09:06:24.233Z,320.62
2019-02-19T09:07:24.207Z,348.75
2019-02-19T09:08:24.192Z,365.62
2019-02-19T09:09:24.180Z,371.25
2019-02-19T09:10:24.175Z,365.62
2019-02-19T09:11:24.178Z,365.62
2019-02-19T09:12:24.142Z,365.62
2019-02-19T09:13:24.133Z,348.75
2019-02-19T09:14:24.132Z,343.12
2019-02-19T09:15:24.118Z,343.12
2019-02-19T09:16:24.132Z,343.12
2019-02-19T09:17:24.099Z,331.88
2019-02-19T09:18:24.081Z,303.75
2019-02-19T09:19:24.062Z,230.62
2019-02-19T09:20:24.052Z,236.25
2019-02-19T09:21:24.056Z,213.75
2019-02-19T09:22:24.027Z,213.75
2019-02-19T09:23:24.020Z,253.12
2019-02-19T09:24:24.008Z,315.00
2019-02-19T09:25:24.005Z,360.00
2019-02-19T09:26:24.010Z,365.62
2019-02-19T09:27:23.983Z,337.50
2019-02-19T09:28:23.973Z,320.62
2019-02-19T09:29:23.957Z,253.12
2019-02-19T09:30:23.941Z,241.88
2019-02-19T09:31:23.952Z,213.75
2019-02-19T09:32:23.924Z,258.75
2019-02-19T09:33:23.923Z,264.38
2019-02-19T09:34:23.896Z,253.12
2019-02-19T09:35:23.897Z,264.38
2019-02-19T09:36:23.901Z,315.00
2019-02-19T09:37:23.863Z,286.88
2019-02-19T09:38:23.859Z,225.00
2019-02-19T09:39:23.841Z,202.50
2019-02-19T09:40:23.826Z,202.50
2019-02-19T09:41:23.826Z,180.00
2019-02-19T09:42:23.811Z,191.25
2019-02-19T09:43:23.791Z,208.12
2019-02-19T09:44:23.797Z,219.38
2019-02-19T09:45:23.768Z,225.00
2019-02-19T09:46:23.771Z,219.38
2019-02-19T09:47:23.746Z,196.88
2019-02-19T09:48:23.734Z,180.00
2019-02-19T09:49:23.729Z,185.62
2019-02-19T09:50:23.719Z,185.62
2019-02-19T09:51:23.724Z,168.75
2019-02-19T09:52:23.690Z,157.50
2019-02-19T09:53:23.680Z,163.12
2019-02-19T09:54:23.682Z,168.75
2019-02-19T09:55:23.666Z,174.38
2019-02-19T09:56:23.661Z,174.38
2019-02-19T09:57:23.640Z,180.00
2019-02-19T09:58:23.629Z,180.00
2019-02-19T09:59:23.612Z,202.50
2019-02-19T10:00:23.600Z,202.50
2019-02-19T10:01:23.604Z,219.38
2019-02-19T10:02:23.576Z,247.50
2019-02-19T10:03:23.564Z,219.38
2019-02-19T10:04:23.576Z,241.88
2019-02-19T10:05:23.540Z,275.62
2019-02-19T10:06:23.546Z,258.75
2019-02-19T10:07:23.528Z,247.50
2019-02-19T10:08:23.510Z,399.38
2019-02-19T10:09:23.488Z,360.00
2019-02-19T10:10:23.482Z,275.62
2019-02-19T10:11:23.492Z,202.50
2019-02-19T10:12:23.472Z,191.25
2019-02-19T10:13:25.120Z,196.88
2019-02-19T10:14:23.442Z,213.75
2019-02-19T10:15:23.436Z,202.50
2019-02-19T10:16:23.442Z,202.50
2019-02-19T10:17:23.417Z,202.50
2019-02-19T10:18:23.400Z,219.38
2019-02-19T10:19:23.382Z,258.75
2019-02-19T10:20:23.374Z,236.25
2019-02-19T10:21:23.371Z,180.00
2019-02-19T10:22:23.361Z,168.75
2019-02-19T10:23:23.342Z,180.00
2019-02-19T10:24:23.335Z,168.75
2019-02-19T10:25:23.324Z,185.62
2019-02-19T10:26:23.350Z,163.12
2019-02-19T10:27:23.295Z,140.62
2019-02-19T10:28:23.299Z,135.00
2019-02-19T10:29:23.264Z,163.12
2019-02-19T10:30:23.309Z,185.62
2019-02-19T10:31:24.237Z,208.12
2019-02-19T10:32:23.397Z,236.25
2019-02-19T10:33:23.627Z,241.88
2019-02-19T10:34:23.345Z,326.25
2019-02-19T10:35:23.247Z,343.12
2019-02-19T10:36:23.216Z,343.12
2019-02-19T10:37:23.174Z,298.12
2019-02-19T10:38:23.281Z,298.12
2019-02-19T10:39:23.168Z,281.25
2019-02-19T10:40:23.197Z,253.12
2019-02-19T10:41:23.315Z,253.12
2019-02-19T10:42:23.206Z,258.75
2019-02-19T10:43:23.560Z,247.50
2019-02-19T10:44:23.312Z,208.12
2019-02-19T10:45:23.220Z,208.12
2019-02-19T10:46:23.079Z,196.88
2019-02-19T10:47:23.082Z,253.12
2019-02-19T10:48:23.059Z,292.50
2019-02-19T10:49:23.037Z,264.38
2019-02-19T10:50:23.138Z,281.25
2019-02-19T10:51:23.024Z,270.00
2019-02-19T10:52:24.205Z,298.12
2019-02-19T10:53:22.995Z,315.00
2019-02-19T10:54:22.983Z,348.75
2019-02-19T10:55:22.977Z,371.25
2019-02-19T10:56:25.436Z,483.75
2019-02-19T10:57:22.976Z,556.88
2019-02-19T10:58:23.404Z,506.25
2019-02-19T10:59:22.934Z,472.50
2019-02-19T11:00:23.039Z,382.50
2019-02-19T11:02:24.078Z,365.62
2019-02-19T11:03:22.917Z,354.38
2019-02-19T11:04:22.881Z,343.12
2019-02-19T11:05:22.855Z,337.50
2019-02-19T11:06:22.858Z,337.50
2019-02-19T11:08:23.983Z,360.00
2019-02-19T11:09:25.105Z,376.88
2019-02-19T11:10:22.803Z,405.00
2019-02-19T11:11:22.807Z,410.62
2019-02-19T11:12:22.796Z,405.00
2019-02-19T11:13:22.779Z,388.12
2019-02-19T11:14:23.115Z,371.25
2019-02-19T11:15:22.754Z,371.25
2019-02-19T11:16:22.731Z,343.12
2019-02-19T11:17:22.743Z,337.50
2019-02-19T11:18:28.379Z,331.88
2019-02-19T11:19:23.710Z,405.00
2019-02-19T11:21:23.759Z,427.50
2019-02-19T11:22:22.705Z,433.12
2019-02-19T11:23:22.655Z,438.75
2019-02-19T11:24:22.658Z,421.88
2019-02-19T11:25:22.631Z,416.25
2019-02-19T11:26:22.632Z,405.00
2019-02-19T11:27:22.637Z,382.50
2019-02-19T11:28:22.599Z,382.50
2019-02-19T11:29:22.600Z,393.75
2019-02-19T11:30:22.610Z,405.00
2019-02-19T11:31:22.567Z,410.62
2019-02-19T11:32:22.782Z,410.62
2019-02-19T11:33:22.581Z,410.62
2019-02-19T11:34:22.573Z,427.50
2019-02-19T11:35:22.523Z,444.38
2019-02-19T11:36:22.511Z,461.25
2019-02-19T11:37:22.518Z,478.12
2019-02-19T11:38:22.508Z,489.38
2019-02-19T11:39:22.651Z,489.38
2019-02-19T11:40:22.473Z,495.00
2019-02-19T11:41:22.464Z,528.75
2019-02-19T11:42:23.404Z,523.12
2019-02-19T11:43:22.440Z,495.00
2019-02-19T11:44:22.446Z,523.12
2019-02-19T11:45:22.408Z,506.25
2019-02-19T11:46:22.401Z,618.75
2019-02-19T11:47:26.584Z,579.38
2019-02-19T11:48:22.377Z,506.25
2019-02-19T11:49:22.374Z,478.12
2019-02-19T11:50:22.378Z,416.25
2019-02-19T11:51:22.346Z,410.62
2019-02-19T11:52:22.357Z,348.75
2019-02-19T11:53:22.376Z,337.50
2019-02-19T11:54:22.636Z,315.00
2019-02-19T11:55:22.299Z,315.00
2019-02-19T11:56:22.281Z,298.12
2019-02-19T11:57:22.314Z,236.25
2019-02-19T11:58:22.256Z,264.38
2019-02-19T11:59:22.259Z,253.12
2019-02-19T12:00:22.240Z,174.38
2019-02-19T12:01:22.233Z,191.25
2019-02-19T12:02:22.256Z,213.75
2019-02-19T12:03:22.207Z,151.88
2019-02-19T12:04:22.195Z,168.75
2019-02-19T12:05:22.188Z,180.00
2019-02-19T12:06:22.186Z,163.12
2019-02-19T12:07:22.169Z,191.25
2019-02-19T12:08:22.145Z,208.12
2019-02-19T12:09:22.340Z,225.00
2019-02-19T12:10:22.127Z,230.62
2019-02-19T12:11:22.112Z,230.62
2019-02-19T12:12:22.120Z,286.88
2019-02-19T12:13:22.089Z,348.75
2019-02-19T12:14:22.082Z,303.75
2019-02-19T12:15:22.068Z,326.25
2019-02-19T12:16:22.067Z,360.00
2019-02-19T12:17:22.065Z,388.12
2019-02-19T12:18:22.037Z,461.25
2019-02-19T12:19:22.024Z,511.88
2019-02-19T12:20:22.013Z,573.75
2019-02-19T12:21:21.995Z,675.00
2019-02-19T12:22:22.011Z,573.75
2019-02-19T12:23:21.977Z,517.50
2019-02-19T12:24:21.973Z,528.75
2019-02-19T12:25:21.955Z,540.00
2019-02-19T12:26:21.941Z,596.25
2019-02-19T12:27:21.963Z,540.00
2019-02-19T12:28:21.950Z,489.38
2019-02-19T12:29:21.913Z,511.88
2019-02-19T12:30:21.923Z,410.62
2019-02-19T12:31:21.929Z,382.50
2019-02-19T12:32:21.874Z,433.12
2019-02-19T12:33:21.882Z,410.62
2019-02-19T12:34:21.852Z,410.62
2019-02-19T12:35:21.892Z,376.88
2019-02-19T12:36:21.826Z,444.38
2019-02-19T12:37:21.818Z,438.75
2019-02-19T12:38:21.835Z,421.88
2019-02-19T12:39:21.797Z,427.50
2019-02-19T12:40:21.785Z,416.25
2019-02-19T12:41:21.779Z,421.88
2019-02-19T12:42:21.762Z,433.12
2019-02-19T12:43:21.766Z,433.12
2019-02-19T12:44:21.739Z,427.50
2019-02-19T12:45:21.732Z,433.12
2019-02-19T12:46:21.723Z,416.25
2019-02-19T12:47:21.717Z,410.62
2019-02-19T12:48:21.720Z,410.62
2019-02-19T12:49:21.687Z,405.00
2019-02-19T12:50:21.680Z,393.75
2019-02-19T12:51:26.525Z,393.75
2019-02-19T12:52:22.647Z,399.38
2019-02-19T12:53:21.657Z,399.38
2019-02-19T12:54:21.622Z,399.38
2019-02-19T12:55:21.618Z,393.75
2019-02-19T12:56:21.609Z,405.00